Time;durP1;ratioP1;P1;durP2;ratioP2;P2;SDS_P1;SDS_P2;PMS_P1;PMS_P2;Temp;Humidity;BMP_temperature;BMP_pressure;BME280_temperature;BME280_humidity;BME280_pressure;Samples;Min_cycle;Max_cycle;Signal;HPM_P1;HPM_P2
2021/09/05 00:02:25;;;;;;;10.30;7.03;;;;;;;14.94;93.74;98083.38;5007139;28;20028;-89
2021/09/05 00:04:51;;;;;;;10.95;5.93;;;;;;;14.83;94.61;98087.53;4992949;28;20041;-87
2021/09/05 00:07:17;;;;;;;10.48;5.97;;;;;;;14.82;94.58;98088.66;5009457;28;20030;-87
2021/09/05 00:10:24;;;;;;;22.65;7.70;;;;;;;14.79;95.11;98090.13;5030984;28;20022;-89
2021/09/05 00:13:10;;;;;;;10.80;5.72;;;;;;;14.76;96.25;98087.19;5030726;28;20034;-87
2021/09/05 00:15:36;;;;;;;9.55;5.80;;;;;;;14.54;96.97;98087.25;4993115;28;20045;-88
2021/09/05 00:18:02;;;;;;;9.27;6.50;;;;;;;14.55;96.90;98095.22;4993192;28;20030;-87
2021/09/05 00:21:09;;;;;;;10.98;5.75;;;;;;;14.37;97.83;98093.53;4994087;28;20030;-88
2021/09/05 00:23:40;;;;;;;12.40;5.15;;;;;;;14.27;99.53;98088.25;5034993;28;20053;-88
2021/09/05 00:26:07;;;;;;;12.27;6.13;;;;;;;14.24;99.96;98099.88;5016868;28;20048;-88
2021/09/05 00:28:54;;;;;;;9.55;5.38;;;;;;;14.30;98.97;98098.63;4999929;28;20101;-88
2021/09/05 00:32:01;;;;;;;9.90;6.15;;;;;;;14.31;97.64;98092.81;5035418;28;20018;-89
2021/09/05 00:35:16;;;;;;;7.03;5.13;;;;;;;14.13;99.45;98104.84;5035584;28;20097;-88
2021/09/05 00:37:42;;;;;;;8.57;5.55;;;;;;;14.26;100.00;98098.44;5019890;28;20045;-91
2021/09/05 00:40:09;;;;;;;11.48;6.63;;;;;;;14.31;98.64;98094.75;5020068;28;20026;-87
2021/09/05 00:42:36;;;;;;;8.32;5.20;;;;;;;14.24;99.40;98099.88;5025722;28;20036;-87
2021/09/05 00:45:30;;;;;;;10.15;6.10;;;;;;;14.20;99.74;98093.38;5018057;28;20038;-87
2021/09/05 00:51:44;;;;;;;11.02;7.00;;;;;;;14.05;100.00;98093.78;5038852;28;20033;-85
2021/09/05 00:54:42;;;;;;;9.10;5.72;;;;;;;14.11;100.00;98079.59;5037922;28;20022;-86
2021/09/05 00:57:13;;;;;;;7.53;6.07;;;;;;;14.17;99.85;98096.75;5036785;28;20052;-88
2021/09/05 01:00:08;;;;;;;9.30;6.10;;;;;;;14.24;98.90;98095.22;5020825;28;20018;-86
2021/09/05 01:02:36;;;;;;;9.55;5.88;;;;;;;14.19;98.91;98100.03;5018861;28;20390;-89
2021/09/05 01:05:01;;;;;;;8.88;6.20;;;;;;;14.12;99.85;98094.97;4983279;28;20034;-88
2021/09/05 01:07:30;;;;;;;10.43;5.82;;;;;;;14.01;100.00;98101.03;5008483;28;20029;-89
2021/09/05 01:09:56;;;;;;;10.07;6.47;;;;;;;13.97;100.00;98111.06;5012466;28;20097;-89
2021/09/05 01:12:21;;;;;;;9.88;6.75;;;;;;;13.78;100.00;98114.78;4999232;28;20045;-89
2021/09/05 01:14:47;;;;;;;10.13;6.88;;;;;;;13.77;100.00;98117.88;5005496;28;20034;-89
2021/09/05 01:17:19;;;;;;;8.25;5.85;;;;;;;13.78;100.00;98120.28;4988494;28;20065;-90
2021/09/05 01:19:45;;;;;;;7.78;5.78;;;;;;;13.72;100.00;98112.50;5010496;28;20064;-85
2021/09/05 01:22:10;;;;;;;10.15;6.20;;;;;;;13.69;100.00;98102.91;5007381;28;20018;-88
2021/09/05 01:24:36;;;;;;;10.25;5.68;;;;;;;13.84;100.00;98127.31;5006958;28;20021;-88
2021/09/05 01:27:02;;;;;;;8.88;6.63;;;;;;;13.59;100.00;98122.41;5005861;28;20477;-88
2021/09/05 01:30:01;;;;;;;7.78;6.18;;;;;;;13.55;100.00;98128.84;5032077;28;20033;-86
2021/09/05 01:32:47;;;;;;;10.02;6.88;;;;;;;13.73;100.00;98123.16;5013266;28;20030;-85
2021/09/05 01:35:12;;;;;;;9.57;5.80;;;;;;;13.62;100.00;98132.78;5007258;28;20030;-84
2021/09/05 01:37:38;;;;;;;11.85;6.57;;;;;;;13.44;100.00;98108.22;5020307;28;20077;-87
2021/09/05 01:40:04;;;;;;;10.20;6.65;;;;;;;13.47;100.00;98113.88;5037125;28;20010;-86
2021/09/05 01:42:29;;;;;;;8.45;5.88;;;;;;;13.32;100.00;98106.81;5040059;28;20021;-86
2021/09/05 01:44:55;;;;;;;9.32;6.60;;;;;;;13.35;100.00;98119.09;5022755;28;20022;-86
2021/09/05 01:47:20;;;;;;;17.48;6.80;;;;;;;13.30;100.00;98120.06;5022330;28;20061;-85
2021/09/05 01:49:46;;;;;;;11.50;7.43;;;;;;;13.24;100.00;98120.47;5017593;28;20152;-87
2021/09/05 01:52:12;;;;;;;10.80;6.85;;;;;;;13.23;100.00;98125.16;5010834;28;20034;-87
2021/09/05 01:54:38;;;;;;;7.53;6.07;;;;;;;13.15;100.00;98114.91;5024804;28;20029;-88
2021/09/05 01:57:04;;;;;;;11.25;7.03;;;;;;;13.16;100.00;98132.97;5006364;28;20026;-86
2021/09/05 01:59:29;;;;;;;8.68;6.60;;;;;;;13.19;100.00;98128.81;5025264;28;20034;-87
2021/09/05 02:01:56;;;;;;;9.52;6.20;;;;;;;13.18;100.00;98140.94;5008849;28;20045;-88
2021/09/05 02:04:21;;;;;;;12.45;6.97;;;;;;;13.22;100.00;98137.25;5007510;28;20040;-88
2021/09/05 02:06:48;;;;;;;8.50;5.93;;;;;;;13.15;100.00;98141.53;5007370;28;20029;-89
2021/09/05 02:09:13;;;;;;;8.88;6.30;;;;;;;13.13;100.00;98141.84;5010085;28;20025;-88
2021/09/05 02:11:40;;;;;;;12.95;8.20;;;;;;;13.16;100.00;98135.72;5011040;28;20030;-86
2021/09/05 02:14:05;;;;;;;9.95;7.15;;;;;;;13.20;100.00;98136.75;5027335;28;20041;-88
2021/09/05 02:16:31;;;;;;;11.40;7.15;;;;;;;13.37;100.00;98136.13;5010972;28;20038;-88
2021/09/05 02:18:56;;;;;;;13.98;7.63;;;;;;;13.47;100.00;98143.31;5025027;28;20022;-85
2021/09/05 02:21:21;;;;;;;16.70;6.82;;;;;;;13.33;100.00;98140.59;5011998;28;20022;-87
2021/09/05 02:23:47;;;;;;;11.45;6.88;;;;;;;13.31;100.00;98138.13;5010989;28;20092;-86
2021/09/05 02:26:12;;;;;;;8.38;6.88;;;;;;;13.28;100.00;98143.47;5008470;28;20124;-86
2021/09/05 02:28:38;;;;;;;10.00;7.13;;;;;;;13.28;100.00;98137.97;5028401;28;20026;-87
2021/09/05 02:31:05;;;;;;;10.50;7.25;;;;;;;13.28;100.00;98137.97;5006495;28;20043;-89
2021/09/05 02:33:31;;;;;;;11.40;7.50;;;;;;;13.38;100.00;98129.47;5004069;28;20038;-88
2021/09/05 02:35:56;;;;;;;9.90;7.35;;;;;;;13.41;100.00;98137.94;4999518;28;20049;-89
2021/09/05 02:38:24;;;;;;;12.90;7.20;;;;;;;13.38;100.00;98132.22;5017138;28;20517;-87
2021/09/05 02:40:49;;;;;;;11.00;7.13;;;;;;;13.35;100.00;98139.16;5000547;28;20035;-87
2021/09/05 02:43:14;;;;;;;10.63;6.88;;;;;;;13.45;100.00;98142.78;5001203;28;20053;-87
2021/09/05 02:45:40;;;;;;;9.00;7.32;;;;;;;13.14;100.00;98137.97;5013852;28;20034;-87
2021/09/05 02:48:05;;;;;;;9.63;6.90;;;;;;;13.04;100.00;98140.09;5017202;28;20437;-87
2021/09/05 02:50:31;;;;;;;15.07;6.75;;;;;;;12.92;100.00;98139.78;4999282;28;20045;-87
2021/09/05 02:52:58;;;;;;;10.63;6.18;;;;;;;12.84;100.00;98120.16;4999752;28;20022;-88
2021/09/05 02:55:24;;;;;;;12.95;6.75;;;;;;;12.88;100.00;98123.94;4999950;28;20133;-87
2021/09/05 02:57:49;;;;;;;18.77;6.13;;;;;;;12.95;100.00;98122.72;4999715;28;20022;-89
2021/09/05 03:00:15;;;;;;;12.30;5.95;;;;;;;12.84;100.00;98122.13;4999414;28;20029;-86
2021/09/05 03:02:40;;;;;;;13.20;5.65;;;;;;;12.75;100.00;98130.22;4999365;28;20064;-87
2021/09/05 03:05:06;;;;;;;7.95;5.53;;;;;;;12.86;100.00;98122.63;4999687;28;20097;-90
2021/09/05 03:07:31;;;;;;;9.98;5.50;;;;;;;12.88;100.00;98129.44;4999726;28;20021;-88
2021/09/05 03:09:57;;;;;;;11.52;5.75;;;;;;;12.68;100.00;98127.09;4998350;28;20052;-87
2021/09/05 03:12:23;;;;;;;10.98;5.70;;;;;;;12.69;100.00;98136.94;4999011;28;20109;-87
2021/09/05 03:14:50;;;;;;;9.77;5.63;;;;;;;12.78;100.00;98140.59;5000543;28;20053;-88
2021/09/05 03:17:15;;;;;;;9.48;5.22;;;;;;;12.90;100.00;98138.16;4999664;28;20043;-88
2021/09/05 03:19:40;;;;;;;10.30;6.25;;;;;;;13.06;100.00;98141.41;4999636;28;20030;-88
2021/09/05 03:22:06;;;;;;;9.70;5.50;;;;;;;13.14;100.00;98134.41;4998814;28;20026;-87
2021/09/05 03:24:31;;;;;;;11.73;5.60;;;;;;;13.14;100.00;98142.66;5021486;28;20116;-87
2021/09/05 03:26:57;;;;;;;7.68;5.40;;;;;;;12.75;100.00;98134.91;5008589;28;20089;-87
2021/09/05 03:29:22;;;;;;;8.90;5.88;;;;;;;12.70;100.00;98157.78;5020253;28;20030;-88
2021/09/05 03:31:47;;;;;;;9.90;6.25;;;;;;;12.60;100.00;98138.78;5015811;28;20025;-88
2021/09/05 03:34:14;;;;;;;12.65;5.63;;;;;;;12.82;100.00;98155.34;4998793;28;20037;-87
2021/09/05 03:36:40;;;;;;;12.07;6.10;;;;;;;12.77;100.00;98147.22;4998719;28;20038;-87
2021/09/05 03:39:05;;;;;;;8.05;5.47;;;;;;;12.70;100.00;98152.31;4999425;28;20045;-89
2021/09/05 03:41:31;;;;;;;6.70;5.20;;;;;;;12.62;100.00;98157.69;5000249;28;20048;-87
2021/09/05 03:43:56;;;;;;;8.00;5.78;;;;;;;12.45;100.00;98147.28;4998331;28;20483;-88
2021/09/05 03:46:21;;;;;;;10.75;5.15;;;;;;;12.42;100.00;98150.66;5002151;28;20025;-86
2021/09/05 03:48:47;;;;;;;10.93;6.65;;;;;;;12.27;100.00;98146.25;5017469;28;20060;-86
2021/09/05 03:51:12;;;;;;;8.80;6.78;;;;;;;12.34;100.00;98151.34;4998906;28;20467;-87
2021/09/05 03:53:38;;;;;;;9.50;6.88;;;;;;;12.27;100.00;98146.25;4998928;28;20025;-85
2021/09/05 03:56:03;;;;;;;9.88;7.13;;;;;;;12.19;100.00;98143.38;4999471;28;20025;-87
2021/09/05 03:58:29;;;;;;;10.82;6.78;;;;;;;12.28;100.00;98153.34;4998128;28;20033;-86
2021/09/05 04:00:54;;;;;;;11.10;6.85;;;;;;;12.15;100.00;98137.66;4998492;28;20036;-88
2021/09/05 04:03:23;;;;;;;8.73;6.90;;;;;;;12.19;100.00;98154.34;4999405;28;20029;-88
2021/09/05 04:05:48;;;;;;;12.43;7.28;;;;;;;12.23;100.00;98141.66;4998578;28;20026;-87
2021/09/05 04:08:15;;;;;;;9.93;7.72;;;;;;;12.17;100.00;98138.22;4998834;28;20117;-86
2021/09/05 04:10:40;;;;;;;13.00;7.13;;;;;;;12.36;100.00;98162.84;5017627;28;20041;-87
2021/09/05 04:13:07;;;;;;;8.70;7.13;;;;;;;12.25;100.00;98155.88;5000372;28;20022;-87
2021/09/05 04:15:33;;;;;;;11.85;8.07;;;;;;;12.28;100.00;98158.84;5004753;28;20014;-87
2021/09/05 04:17:58;;;;;;;12.05;8.13;;;;;;;12.33;100.00;98160.69;5013501;28;20077;-87
2021/09/05 04:20:24;;;;;;;10.60;7.88;;;;;;;12.14;100.00;98154.44;5015052;28;20010;-89
2021/09/05 04:22:51;;;;;;;12.43;8.73;;;;;;;12.11;100.00;98155.84;5016055;28;20017;-86
2021/09/05 04:25:18;;;;;;;11.98;8.95;;;;;;;12.04;100.00;98143.63;5016546;28;20045;-87
2021/09/05 04:27:44;;;;;;;11.77;7.97;;;;;;;12.20;100.00;98175.19;5032394;28;20018;-87
2021/09/05 04:30:12;;;;;;;11.10;8.20;;;;;;;12.22;100.00;98160.03;5012914;28;20021;-88
2021/09/05 04:32:39;;;;;;;11.00;8.38;;;;;;;12.36;100.00;98176.53;4999935;28;20898;-88
2021/09/05 04:35:06;;;;;;;16.58;9.55;;;;;;;12.20;100.00;98164.22;5006952;28;20486;-86
2021/09/05 04:37:31;;;;;;;11.25;8.05;;;;;;;12.29;100.00;98178.84;5002134;28;20089;-86
2021/09/05 04:39:57;;;;;;;9.93;7.40;;;;;;;12.24;100.00;98174.28;4989641;28;20045;-86
2021/09/05 04:42:22;;;;;;;10.18;7.93;;;;;;;12.33;100.00;98177.97;4989230;28;20022;-87
2021/09/05 04:44:48;;;;;;;9.18;7.40;;;;;;;12.42;100.00;98186.31;4991307;28;20080;-87
2021/09/05 04:47:14;;;;;;;8.57;7.65;;;;;;;12.58;100.00;98195.91;4989536;28;20500;-88
2021/09/05 04:49:41;;;;;;;11.05;7.53;;;;;;;12.64;100.00;98194.69;4988227;28;20690;-88
2021/09/05 04:52:07;;;;;;;22.92;17.70;;;;;;;12.59;100.00;98203.00;4990428;28;20018;-87
2021/09/05 04:54:34;;;;;;;12.20;8.10;;;;;;;12.55;100.00;98203.91;5011462;28;20352;-88
2021/09/05 04:56:59;;;;;;;17.38;8.52;;;;;;;12.49;100.00;98194.16;4997406;28;20065;-88
2021/09/05 04:59:26;;;;;;;11.35;7.38;;;;;;;12.56;100.00;98203.59;5012877;28;20046;-88
2021/09/05 05:01:51;;;;;;;10.40;7.70;;;;;;;12.62;100.00;98207.09;4996251;28;20022;-89
2021/09/05 05:04:17;;;;;;;14.52;11.35;;;;;;;12.75;100.00;98211.75;4997844;28;20097;-86
2021/09/05 05:06:43;;;;;;;12.02;7.18;;;;;;;12.82;100.00;98213.00;4994399;28;20026;-86
2021/09/05 05:09:10;;;;;;;14.50;9.77;;;;;;;12.92;100.00;98216.66;4996485;28;20017;-88
2021/09/05 05:11:37;;;;;;;9.57;6.80;;;;;;;12.90;100.00;98217.78;5001108;28;20022;-86
2021/09/05 05:14:03;;;;;;;9.32;6.93;;;;;;;12.93;100.00;98208.16;5000683;28;20033;-87
2021/09/05 05:16:28;;;;;;;9.45;7.07;;;;;;;12.99;100.00;98206.09;5018713;28;20038;-85
2021/09/05 05:18:53;;;;;;;8.13;6.20;;;;;;;13.27;100.00;98214.06;5017957;28;20034;-88
2021/09/05 05:21:19;;;;;;;10.43;6.20;;;;;;;13.15;100.00;98215.72;4999016;28;20126;-88
2021/09/05 05:23:44;;;;;;;9.95;7.72;;;;;;;12.94;100.00;98203.47;4997225;28;20030;-87
2021/09/05 05:26:10;;;;;;;12.27;8.23;;;;;;;12.93;100.00;98227.38;4997611;28;20030;-87
2021/09/05 05:28:35;;;;;;;11.43;8.23;;;;;;;13.07;100.00;98225.44;4998131;28;20074;-87
2021/09/05 05:31:01;;;;;;;11.98;9.35;;;;;;;13.25;100.00;98227.28;5000945;28;20081;-87
2021/09/05 05:33:28;;;;;;;12.38;8.30;;;;;;;13.30;100.00;98218.97;5020310;28;20034;-87
2021/09/05 05:35:55;;;;;;;9.65;6.10;;;;;;;13.49;100.00;98221.59;5003223;28;20034;-85
2021/09/05 05:38:23;;;;;;;7.68;6.88;;;;;;;13.32;100.00;98208.47;5014082;28;20042;-88
2021/09/05 05:40:49;;;;;;;11.05;6.88;;;;;;;13.48;99.98;98241.94;5023745;28;20022;-86
2021/09/05 05:43:15;;;;;;;8.85;6.07;;;;;;;13.55;98.67;98231.34;5006432;28;20020;-86
2021/09/05 05:45:45;;;;;;;10.38;7.18;;;;;;;13.66;98.49;98230.00;5019900;28;20013;-86
2021/09/05 05:48:11;;;;;;;8.55;6.88;;;;;;;13.51;98.71;98230.31;5021639;28;20006;-87
2021/09/05 05:50:37;;;;;;;11.80;6.70;;;;;;;13.64;99.13;98235.00;5021483;28;20022;-87
2021/09/05 05:53:02;;;;;;;9.00;6.65;;;;;;;13.78;97.53;98257.75;5020811;28;20041;-88
2021/09/05 05:55:28;;;;;;;10.50;6.35;;;;;;;13.79;96.89;98237.41;5017500;28;20018;-87
2021/09/05 05:57:53;;;;;;;393.88;171.05;;;;;;;13.96;95.57;98239.50;5017700;28;20026;-87
2021/09/05 06:00:20;;;;;;;256.67;111.03;;;;;;;13.94;95.44;98242.56;5038868;28;20026;-87
2021/09/05 06:02:48;;;;;;;105.95;46.72;;;;;;;14.22;94.51;98262.53;5030061;28;20018;-88
2021/09/05 06:05:13;;;;;;;84.47;35.63;;;;;;;14.50;94.16;98268.78;4997716;28;20030;-79
2021/09/05 06:07:39;;;;;;;49.05;24.10;;;;;;;14.57;93.38;98258.13;5008889;28;20088;-79
2021/09/05 06:10:05;;;;;;;32.72;16.83;;;;;;;14.78;92.04;98262.00;5011467;28;20030;-77
2021/09/05 06:12:31;;;;;;;26.45;15.30;;;;;;;14.86;91.53;98264.00;5011348;28;20125;-78
2021/09/05 06:14:56;;;;;;;27.23;13.48;;;;;;;15.04;90.98;98267.63;5011332;28;20550;-78
2021/09/05 06:17:22;;;;;;;16.63;8.63;;;;;;;15.06;89.52;98268.16;5011122;28;20113;-77
2021/09/05 06:19:49;;;;;;;12.45;8.60;;;;;;;15.02;90.11;98264.41;5010537;28;20034;-80
2021/09/05 06:22:14;;;;;;;13.25;8.25;;;;;;;15.05;89.94;98272.03;5010467;28;20380;-77
2021/09/05 06:24:40;;;;;;;10.90;7.97;;;;;;;15.32;87.92;98262.75;5011970;28;20041;-77
2021/09/05 06:27:05;;;;;;;10.82;7.90;;;;;;;15.43;87.59;98256.63;4998055;28;20033;-78
2021/09/05 06:29:31;;;;;;;14.63;7.18;;;;;;;15.39;86.39;98274.13;5002478;28;20097;-77
2021/09/05 06:31:56;;;;;;;9.38;6.97;;;;;;;15.68;86.22;98274.41;5018035;28;20026;-77
2021/09/05 06:34:22;;;;;;;10.02;6.72;;;;;;;16.05;84.02;98276.59;5012246;28;20402;-76
2021/09/05 06:36:47;;;;;;;10.63;6.80;;;;;;;15.97;83.78;98271.91;5010818;28;20088;-77
2021/09/05 06:39:14;;;;;;;13.68;8.15;;;;;;;15.99;84.53;98272.38;4992857;28;20030;-80
2021/09/05 06:41:40;;;;;;;10.35;7.43;;;;;;;16.07;84.07;98279.03;5011038;28;20034;-77
2021/09/05 06:44:05;;;;;;;13.98;7.45;;;;;;;16.27;83.04;98277.59;4992972;28;20449;-79
2021/09/05 06:46:31;;;;;;;17.52;8.23;;;;;;;16.31;83.62;98279.38;5010614;28;20044;-78
2021/09/05 06:48:56;;;;;;;17.40;11.90;;;;;;;16.39;81.59;98277.75;5010514;28;20465;-77
2021/09/05 06:51:21;;;;;;;12.02;8.43;;;;;;;16.33;82.65;98281.81;5016368;28;20080;-77
2021/09/05 06:53:47;;;;;;;13.10;6.75;;;;;;;16.61;81.32;98283.13;5012153;28;20080;-75
2021/09/05 06:56:12;;;;;;;11.75;8.10;;;;;;;16.54;81.48;98285.53;5009856;28;20036;-75
2021/09/05 06:58:38;;;;;;;14.73;8.18;;;;;;;16.89;80.29;98284.38;4992135;28;20036;-75
2021/09/05 07:01:04;;;;;;;13.10;8.45;;;;;;;17.11;79.15;98289.69;5007696;28;20030;-75
2021/09/05 07:03:30;;;;;;;11.52;7.85;;;;;;;17.24;78.21;98287.88;5012393;28;20041;-83
2021/09/05 07:05:55;;;;;;;14.77;8.55;;;;;;;17.93;76.93;98291.16;5007809;28;20022;-74
2021/09/05 07:08:21;;;;;;;17.63;8.38;;;;;;;18.00;75.78;98291.44;5015653;28;20112;-74
2021/09/05 07:10:47;;;;;;;12.00;8.27;;;;;;;18.08;74.44;98298.88;5008892;28;20104;-75
2021/09/05 07:13:12;;;;;;;16.73;9.75;;;;;;;17.60;75.51;98288.22;5009469;28;20045;-74
2021/09/05 07:15:37;;;;;;;19.27;11.52;;;;;;;17.82;74.44;98305.72;5011058;28;20047;-73
2021/09/05 07:18:04;;;;;;;17.80;9.60;;;;;;;18.02;77.45;98304.94;5011131;28;20038;-74
2021/09/05 07:20:30;;;;;;;18.98;9.15;;;;;;;18.74;74.74;98310.13;5011667;28;20080;-74
2021/09/05 07:22:58;;;;;;;14.25;8.48;;;;;;;18.88;71.96;98312.63;5011352;28;20480;-75
2021/09/05 07:25:26;;;;;;;17.80;6.70;;;;;;;19.14;69.76;98316.75;5011337;28;20051;-77
2021/09/05 07:27:54;;;;;;;18.85;8.73;;;;;;;18.98;68.59;98309.44;5010200;28;20018;-76
2021/09/05 07:30:22;;;;;;;18.27;8.07;;;;;;;19.06;71.90;98317.66;5011063;28;20427;-75
2021/09/05 07:32:48;;;;;;;13.38;9.00;;;;;;;19.75;70.92;98319.66;5011601;28;20025;-74
2021/09/05 07:35:14;;;;;;;11.43;8.52;;;;;;;20.30;65.43;98324.63;5005829;28;20045;-75
2021/09/05 07:37:44;;;;;;;12.02;8.52;;;;;;;20.80;63.81;98318.59;5020807;28;20034;-73
2021/09/05 07:40:12;;;;;;;13.43;8.45;;;;;;;21.41;60.69;98323.91;4992873;28;20666;-75
2021/09/05 07:42:37;;;;;;;18.00;7.60;;;;;;;22.60;58.27;98333.59;5012122;28;20594;-74
2021/09/05 07:45:03;;;;;;;13.30;6.63;;;;;;;22.50;54.79;98328.59;5011677;28;20128;-74
2021/09/05 07:47:28;;;;;;;11.55;6.15;;;;;;;24.29;52.42;98336.88;5012081;28;20033;-75
2021/09/05 07:49:53;;;;;;;9.85;6.03;;;;;;;23.74;51.69;98343.13;4991907;28;20034;-73
2021/09/05 07:52:19;;;;;;;9.18;6.68;;;;;;;25.29;50.55;98345.47;5005989;28;20088;-74
2021/09/05 07:54:44;;;;;;;11.38;6.22;;;;;;;24.86;48.19;98340.53;5016104;28;20188;-75
2021/09/05 07:57:10;;;;;;;9.05;6.63;;;;;;;24.29;48.26;98338.88;5000785;28;20076;-75
2021/09/05 07:59:40;;;;;;;8.55;6.63;;;;;;;24.42;47.93;98346.69;5010120;28;20100;-74
2021/09/05 08:02:06;;;;;;;9.95;7.25;;;;;;;25.31;46.30;98339.50;4993184;28;20022;-74
2021/09/05 08:04:31;;;;;;;9.55;6.72;;;;;;;25.48;45.72;98334.06;5009960;28;20054;-75
2021/09/05 08:06:58;;;;;;;12.05;6.32;;;;;;;26.05;46.51;98343.03;4992417;28;20022;-74
2021/09/05 08:09:25;;;;;;;7.53;5.78;;;;;;;25.79;45.00;98340.41;5010676;28;20022;-73
2021/09/05 08:11:50;;;;;;;8.90;6.85;;;;;;;25.37;45.12;98338.72;4990830;28;20447;-74
2021/09/05 08:14:17;;;;;;;8.93;6.35;;;;;;;25.22;45.64;98336.16;5010427;28;20060;-74
2021/09/05 08:16:42;;;;;;;7.45;6.03;;;;;;;25.12;45.71;98339.66;5010139;28;20121;-74
2021/09/05 08:19:08;;;;;;;7.03;5.82;;;;;;;27.22;41.26;98347.44;5009532;28;20021;-74
2021/09/05 08:21:35;;;;;;;7.90;5.60;;;;;;;27.17;41.07;98341.38;5009235;28;20107;-76
2021/09/05 08:24:00;;;;;;;7.78;5.85;;;;;;;25.99;42.26;98344.59;5009506;28;20021;-76
2021/09/05 08:26:26;;;;;;;12.32;6.00;;;;;;;25.36;43.79;98345.53;5009503;28;20026;-76
2021/09/05 08:28:52;;;;;;;9.80;5.97;;;;;;;25.72;43.33;98341.13;5010725;28;20029;-75
2021/09/05 08:31:18;;;;;;;9.65;5.82;;;;;;;25.64;43.75;98344.25;5014240;28;20080;-74
2021/09/05 08:33:44;;;;;;;7.32;5.07;;;;;;;25.17;47.87;98342.91;5014515;28;20041;-75
2021/09/05 08:36:09;;;;;;;8.38;5.63;;;;;;;24.72;45.47;98338.31;5013780;28;20042;-75
2021/09/05 08:38:35;;;;;;;8.05;5.88;;;;;;;23.76;47.92;98344.38;5014516;28;20483;-78
2021/09/05 08:41:01;;;;;;;7.15;5.15;;;;;;;23.58;50.00;98345.22;5013164;28;20033;-74
2021/09/05 08:43:26;;;;;;;9.63;5.78;;;;;;;23.20;49.86;98349.66;5013483;28;20053;-77
2021/09/05 08:45:52;;;;;;;9.30;5.97;;;;;;;23.07;50.24;98348.19;5014151;28;20041;-73
2021/09/05 08:48:19;;;;;;;6.75;5.68;;;;;;;23.58;50.09;98348.03;5015230;28;20022;-72
2021/09/05 08:50:53;;;;;;;7.70;6.38;;;;;;;24.13;48.30;98349.41;5013323;28;20029;-74
2021/09/05 08:53:19;;;;;;;5.93;4.63;;;;;;;24.62;45.70;98346.56;5012962;28;20060;-74
2021/09/05 08:55:46;;;;;;;8.82;5.30;;;;;;;24.48;46.64;98345.16;5013295;28;20112;-74
2021/09/05 08:58:13;;;;;;;10.10;5.03;;;;;;;24.98;47.51;98335.50;5013936;28;20088;-76
2021/09/05 09:00:39;;;;;;;10.23;6.20;;;;;;;24.57;45.71;98349.66;5014095;28;20091;-77
2021/09/05 09:03:04;;;;;;;6.68;5.15;;;;;;;24.21;49.46;98349.16;5015187;28;20538;-74
2021/09/05 09:05:36;;;;;;;5.85;4.57;;;;;;;24.34;46.64;98341.38;4979122;28;20166;-74
2021/09/05 09:08:13;;;;;;;7.10;5.38;;;;;;;23.70;47.24;98339.47;4995175;28;20034;-74
2021/09/05 09:10:52;;;;;;;7.70;5.72;;;;;;;24.00;47.78;98340.38;5010708;28;20057;-80
2021/09/05 09:13:27;;;;;;;8.60;4.88;;;;;;;24.30;47.04;98338.50;5013288;28;20030;-74
2021/09/05 09:15:53;;;;;;;9.55;4.85;;;;;;;24.88;44.94;98341.75;5013600;28;20038;-74
2021/09/05 09:18:27;;;;;;;10.45;4.72;;;;;;;24.43;46.21;98334.28;5013276;28;20034;-73
2021/09/05 09:20:54;;;;;;;6.20;5.07;;;;;;;24.30;46.59;98337.69;5014718;28;20048;-76
2021/09/05 09:23:31;;;;;;;7.63;6.55;;;;;;;24.32;46.93;98338.13;5015362;28;20030;-75
2021/09/05 09:26:06;;;;;;;6.68;5.28;;;;;;;24.27;48.92;98333.66;5013664;28;20029;-74
2021/09/05 09:28:41;;;;;;;12.07;4.53;;;;;;;24.64;48.59;98330.19;5012931;28;20030;-74
2021/09/05 09:31:25;;;;;;;12.25;4.25;;;;;;;24.74;44.75;98318.34;5015539;28;20077;-73
2021/09/05 09:33:57;;;;;;;11.25;3.88;;;;;;;25.19;44.06;98318.13;4998817;28;20091;-73
2021/09/05 09:36:26;;;;;;;7.53;3.97;;;;;;;24.91;45.84;98324.19;5010945;28;20104;-77
2021/09/05 09:39:00;;;;;;;4.20;3.55;;;;;;;24.78;44.16;98320.00;5009974;28;20050;-73
2021/09/05 09:41:33;;;;;;;4.75;3.17;;;;;;;24.80;44.42;98317.63;4993974;28;20896;-76
2021/09/05 09:44:05;;;;;;;5.68;3.40;;;;;;;24.96;44.46;98321.06;5011214;28;20497;-73
2021/09/05 09:46:34;;;;;;;4.20;3.40;;;;;;;24.99;44.61;98319.50;5010419;28;20068;-73
2021/09/05 09:49:02;;;;;;;10.68;3.65;;;;;;;24.83;43.87;98311.31;5012022;28;20103;-73
2021/09/05 09:51:28;;;;;;;5.95;3.28;;;;;;;24.28;44.75;98318.47;5011758;28;20021;-73
2021/09/05 09:53:55;;;;;;;7.38;3.53;;;;;;;24.88;43.69;98310.97;5012642;28;20032;-73
2021/09/05 09:56:21;;;;;;;4.40;3.35;;;;;;;25.06;45.07;98313.97;5011946;28;20450;-74
2021/09/05 09:58:58;;;;;;;6.50;3.92;;;;;;;24.82;44.58;98304.09;5012131;28;20455;-74
2021/09/05 10:01:25;;;;;;;5.45;3.60;;;;;;;24.95;43.50;98302.66;5012110;28;20113;-73
2021/09/05 10:03:53;;;;;;;4.35;3.08;;;;;;;24.28;44.20;98306.47;5011620;28;20494;-73
2021/09/05 10:06:22;;;;;;;5.22;3.60;;;;;;;24.46;43.93;98302.75;5011739;28;20084;-76
2021/09/05 10:08:47;;;;;;;3.90;3.15;;;;;;;24.45;44.34;98301.16;5011614;28;20037;-76
2021/09/05 10:11:19;;;;;;;3.65;3.08;;;;;;;24.37;44.56;98310.63;5013723;28;20037;-78
2021/09/05 10:13:45;;;;;;;4.20;3.30;;;;;;;24.22;44.88;98311.59;5006346;28;20030;-78
2021/09/05 10:16:12;;;;;;;4.15;3.15;;;;;;;24.77;42.87;98306.38;5011282;28;20041;-74
2021/09/05 10:18:45;;;;;;;9.15;3.40;;;;;;;24.77;41.53;98300.78;5010852;28;20043;-72
2021/09/05 10:21:14;;;;;;;4.63;3.38;;;;;;;24.58;41.77;98292.53;5008752;28;20080;-75
2021/09/05 10:23:46;;;;;;;4.53;3.50;;;;;;;24.83;41.46;98285.31;5011143;28;20664;-72
2021/09/05 10:26:15;;;;;;;4.00;2.78;;;;;;;25.15;40.50;98292.09;5011198;28;20530;-73
2021/09/05 10:28:44;;;;;;;4.10;3.00;;;;;;;24.83;41.89;98294.50;5010709;28;20030;-72
2021/09/05 10:31:11;;;;;;;6.43;3.10;;;;;;;24.84;40.66;98289.72;5010230;28;20445;-74
2021/09/05 10:33:44;;;;;;;4.57;2.90;;;;;;;25.00;40.34;98290.28;4993691;28;20354;-74
2021/09/05 10:36:18;;;;;;;3.20;2.90;;;;;;;25.14;40.75;98282.06;5011455;28;20041;-74
2021/09/05 10:38:46;;;;;;;6.20;2.78;;;;;;;25.30;40.03;98291.06;5007391;28;20414;-80
2021/09/05 10:41:25;;;;;;;3.88;2.78;;;;;;;24.73;39.26;98283.13;4992999;28;20045;-76
2021/09/05 10:43:59;;;;;;;3.65;3.10;;;;;;;25.00;40.35;98276.28;5010706;28;20026;-72
2021/09/05 10:46:47;;;;;;;4.70;2.40;;;;;;;25.01;39.21;98286.31;5013131;28;20097;-74
2021/09/05 10:49:13;;;;;;;5.97;3.65;;;;;;;24.56;39.93;98284.50;5011457;28;20022;-71
2021/09/05 10:51:52;;;;;;;3.75;2.95;;;;;;;24.94;39.18;98289.84;5009200;28;20184;-75
2021/09/05 10:54:26;;;;;;;6.32;2.78;;;;;;;24.93;39.00;98282.66;5008549;28;20428;-73
2021/09/05 10:56:53;;;;;;;3.78;3.35;;;;;;;25.21;38.08;98273.75;5010155;28;20030;-74
2021/09/05 10:59:24;;;;;;;4.05;2.67;;;;;;;25.06;38.77;98280.38;5010399;28;20113;-73
2021/09/05 11:01:49;;;;;;;5.45;2.90;;;;;;;25.01;38.91;98286.31;5010137;28;20029;-73
2021/09/05 11:04:18;;;;;;;3.97;2.90;;;;;;;24.89;39.78;98289.38;5010760;28;20558;-73
2021/09/05 11:06:46;;;;;;;3.60;2.88;;;;;;;25.27;39.45;98288.22;5010675;28;20040;-74
2021/09/05 11:09:17;;;;;;;5.47;2.92;;;;;;;24.63;37.50;98286.59;4992765;28;20072;-74
2021/09/05 11:12:07;;;;;;;5.18;3.38;;;;;;;24.59;38.82;98277.38;5009605;28;20534;-77
2021/09/05 11:14:45;;;;;;;4.47;2.70;;;;;;;24.54;40.02;98275.69;5009149;28;20057;-79
2021/09/05 11:17:18;;;;;;;3.72;2.70;;;;;;;24.13;41.10;98280.31;5008613;28;20026;-80
2021/09/05 11:19:55;;;;;;;3.67;2.97;;;;;;;23.96;41.76;98283.63;4989722;28;20056;-79
2021/09/05 11:22:24;;;;;;;3.67;2.97;;;;;;;23.79;42.80;98257.00;4990216;28;20021;-78
2021/09/05 11:25:20;;;;;;;4.10;2.70;;;;;;;24.61;40.90;98269.41;5014923;28;20036;-79
2021/09/05 11:27:57;;;;;;;3.37;2.40;;;;;;;25.31;38.25;98280.66;4998867;28;20033;-78
2021/09/05 11:30:25;;;;;;;4.10;3.60;;;;;;;25.36;38.24;98283.91;5007938;28;20386;-77
2021/09/05 11:33:18;;;;;;;6.13;2.85;;;;;;;24.43;39.63;98269.16;5010619;28;20030;-77
2021/09/05 11:35:45;;;;;;;3.13;2.75;;;;;;;24.32;38.29;98269.00;5010886;28;20398;-81
2021/09/05 11:38:13;;;;;;;7.40;3.05;;;;;;;24.09;39.25;98275.84;5021395;28;20033;-78